Time;durP1;ratioP1;P1;durP2;ratioP2;P2;SDS_P1;SDS_P2;PMS_P1;PMS_P2;Temp;Humidity;BMP_temperature;BMP_pressure;BME280_temperature;BME280_humidity;BME280_pressure;Samples;Min_cycle;Max_cycle;Signal;HPM_P1;HPM_P2
2023/05/21 00:01:09;;;;;;;16.75;15.05;;;;;;;21.07;68.58;100844.00;5095852;28;20051;-56
2023/05/21 00:03:40;;;;;;;16.38;14.68;;;;;;;21.10;68.59;100853.63;5079475;28;20037;-56
2023/05/21 00:06:08;;;;;;;15.07;13.57;;;;;;;21.08;68.68;100851.09;5075435;28;20053;-55
2023/05/21 00:08:35;;;;;;;15.60;13.82;;;;;;;21.09;68.78;100846.56;5075933;28;20044;-56
2023/05/21 00:11:03;;;;;;;18.30;14.63;;;;;;;21.07;68.88;100841.31;5075137;28;20052;-58
2023/05/21 00:13:30;;;;;;;17.58;14.60;;;;;;;21.08;68.70;100839.47;5075375;28;20053;-58
2023/05/21 00:15:58;;;;;;;15.38;13.77;;;;;;;21.08;68.80;100840.31;5075635;28;20526;-59
2023/05/21 00:18:25;;;;;;;15.57;13.98;;;;;;;21.07;68.55;100830.56;5075411;28;20045;-58
2023/05/21 00:20:53;;;;;;;15.25;13.65;;;;;;;21.06;68.58;100823.44;5075820;28;20051;-58
2023/05/21 00:23:20;;;;;;;15.88;13.68;;;;;;;21.07;68.59;100832.41;5075803;28;20044;-58
2023/05/21 00:25:49;;;;;;;14.27;12.80;;;;;;;21.07;68.67;100827.88;5075638;28;20048;-58
2023/05/21 00:28:16;;;;;;;16.42;14.63;;;;;;;21.07;68.57;100824.31;5075506;28;20044;-59
2023/05/21 00:30:44;;;;;;;15.45;13.85;;;;;;;21.06;68.59;100823.44;5075671;28;20388;-58
2023/05/21 00:33:12;;;;;;;16.38;14.10;;;;;;;21.06;68.61;100828.84;5074327;28;20052;-59
2023/05/21 00:35:40;;;;;;;14.80;13.30;;;;;;;21.06;68.69;100826.13;5074942;28;20396;-59
2023/05/21 00:38:07;;;;;;;16.73;13.82;;;;;;;21.05;68.55;100805.59;5080048;28;20048;-59
2023/05/21 00:40:35;;;;;;;15.68;13.30;;;;;;;21.05;68.66;100811.00;5094518;28;20063;-57
2023/05/21 00:43:03;;;;;;;15.13;13.52;;;;;;;21.05;68.52;100811.00;5095743;28;20134;-56
2023/05/21 00:45:30;;;;;;;15.13;13.52;;;;;;;21.05;68.58;100805.59;5095418;28;20040;-56
2023/05/21 00:47:58;;;;;;;14.68;13.23;;;;;;;21.05;68.37;100805.59;5095442;28;20480;-56
2023/05/21 00:50:26;;;;;;;15.07;13.48;;;;;;;21.06;68.46;100803.75;5095777;28;20060;-59
2023/05/21 00:52:53;;;;;;;14.88;13.27;;;;;;;21.06;68.46;100801.91;5093774;28;20054;-59
2023/05/21 00:55:21;;;;;;;15.02;13.45;;;;;;;21.05;68.33;100800.22;5095033;28;20040;-57
2023/05/21 00:57:49;;;;;;;16.23;14.05;;;;;;;21.05;68.17;100780.53;5094562;28;20491;-56
2023/05/21 01:00:16;;;;;;;15.77;14.13;;;;;;;21.05;68.17;100776.00;5093982;28;20051;-59
2023/05/21 01:02:44;;;;;;;15.10;13.23;;;;;;;21.05;68.28;100788.63;5093858;28;20046;-59
2023/05/21 01:05:14;;;;;;;15.57;13.70;;;;;;;21.04;68.22;100778.84;5073403;28;20051;-59
2023/05/21 01:07:42;;;;;;;15.93;14.25;;;;;;;21.05;68.23;100786.75;5075539;28;20052;-59
2023/05/21 01:10:10;;;;;;;15.13;13.52;;;;;;;21.04;68.16;100774.31;5074566;28;20512;-57
2023/05/21 01:12:40;;;;;;;15.68;13.20;;;;;;;21.03;68.02;100775.31;5073088;28;20049;-56
2023/05/21 01:15:09;;;;;;;15.52;13.73;;;;;;;21.04;67.92;100770.78;5074528;28;20060;-56
2023/05/21 01:17:37;;;;;;;15.30;13.65;;;;;;;21.03;68.12;100756.47;5074421;28;20067;-56
2023/05/21 01:20:08;;;;;;;14.88;13.27;;;;;;;21.03;68.03;100756.47;5074760;28;20048;-59
2023/05/21 01:22:55;;;;;;;16.38;14.20;;;;;;;21.03;67.96;100758.31;5073176;28;20049;-59
2023/05/21 01:25:23;;;;;;;14.93;13.32;;;;;;;21.03;67.95;100753.78;5073256;28;20041;-59
2023/05/21 01:27:51;;;;;;;15.73;13.65;;;;;;;21.03;67.95;100753.78;5074552;28;20056;-59
2023/05/21 01:30:21;;;;;;;15.85;14.10;;;;;;;21.03;67.91;100748.41;5074262;28;20051;-59
2023/05/21 01:33:12;;;;;;;15.65;13.60;;;;;;;21.03;67.82;100736.78;5074460;28;20060;-59
2023/05/21 01:35:49;;;;;;;14.93;13.30;;;;;;;21.03;67.84;100732.25;5073926;28;20515;-59
2023/05/21 01:38:28;;;;;;;15.10;12.98;;;;;;;21.03;67.70;100740.31;5072897;28;20076;-58
2023/05/21 01:41:03;;;;;;;15.23;13.63;;;;;;;21.02;67.76;100735.06;5074637;28;20048;-56
2023/05/21 01:43:35;;;;;;;16.80;14.85;;;;;;;21.01;67.72;100730.69;5073154;28;20085;-56
2023/05/21 01:46:04;;;;;;;15.25;13.70;;;;;;;21.03;67.77;100734.09;5074334;28;20056;-56
2023/05/21 01:48:34;;;;;;;16.00;14.30;;;;;;;21.03;67.70;100736.78;5073960;28;20041;-57
2023/05/21 01:51:04;;;;;;;15.20;13.60;;;;;;;21.03;67.77;100736.78;5073585;28;20048;-56
2023/05/21 01:53:31;;;;;;;15.10;13.27;;;;;;;21.02;67.67;100737.75;5091327;28;20044;-56
2023/05/21 01:55:59;;;;;;;17.73;14.48;;;;;;;21.02;67.56;100735.06;5092978;28;20052;-56
2023/05/21 01:58:27;;;;;;;16.48;14.10;;;;;;;21.02;67.58;100721.59;5092983;28;20048;-56
2023/05/21 02:00:55;;;;;;;16.80;14.90;;;;;;;21.02;67.58;100718.91;5092295;28;20052;-56
2023/05/21 02:03:26;;;;;;;16.45;14.40;;;;;;;21.03;67.63;100717.94;5092567;28;20048;-56
2023/05/21 02:05:54;;;;;;;16.08;14.07;;;;;;;21.02;67.48;100713.53;5074034;28;20044;-56
2023/05/21 02:08:22;;;;;;;15.52;13.63;;;;;;;21.01;67.46;100707.31;5072443;28;20488;-56
2023/05/21 02:10:50;;;;;;;15.07;13.55;;;;;;;21.01;67.44;100710.00;5073984;28;20048;-57
2023/05/21 02:13:21;;;;;;;16.20;13.40;;;;;;;21.01;67.40;100698.38;5073488;28;20044;-56
2023/05/21 02:15:53;;;;;;;16.08;12.88;;;;;;;21.00;67.39;100692.16;5072442;28;20056;-56
2023/05/21 02:18:22;;;;;;;15.63;13.65;;;;;;;21.00;67.47;100689.47;5072699;28;20049;-56
2023/05/21 02:20:49;;;;;;;15.25;13.10;;;;;;;20.99;67.41;100685.94;5073468;28;20061;-59
2023/05/21 02:23:16;;;;;;;15.07;13.50;;;;;;;21.01;67.36;100680.38;5073442;28;20060;-59
2023/05/21 02:25:44;;;;;;;16.13;14.43;;;;;;;20.99;67.42;100683.25;5072668;28;20040;-59
2023/05/21 02:28:11;;;;;;;16.27;14.45;;;;;;;21.01;67.37;100687.63;5072923;28;20056;-59
2023/05/21 02:30:39;;;;;;;18.50;13.77;;;;;;;21.00;67.36;100689.47;5073038;28;20055;-58
2023/05/21 02:33:07;;;;;;;16.10;14.40;;;;;;;20.99;67.29;100683.25;5072941;28;20049;-59
2023/05/21 02:35:35;;;;;;;15.18;13.63;;;;;;;21.01;67.27;100677.69;5073258;28;20060;-59
2023/05/21 02:38:03;;;;;;;15.10;13.05;;;;;;;21.00;67.33;100678.69;5073028;28;20048;-58
2023/05/21 02:40:31;;;;;;;15.07;13.32;;;;;;;21.00;67.25;100676.00;5090245;28;20051;-56
2023/05/21 02:42:59;;;;;;;15.38;13.77;;;;;;;20.99;67.22;100674.31;5093711;28;20071;-56
2023/05/21 02:45:30;;;;;;;16.00;14.30;;;;;;;21.00;67.25;100676.00;5091991;28;20059;-56
2023/05/21 02:47:58;;;;;;;15.60;13.95;;;;;;;20.99;67.33;100667.09;5091866;28;20057;-56
2023/05/21 02:50:25;;;;;;;17.70;15.02;;;;;;;21.00;67.13;100673.31;5092249;28;20055;-56
2023/05/21 02:52:58;;;;;;;16.60;13.82;;;;;;;21.01;67.12;100675.00;5091979;28;20052;-56
2023/05/21 02:55:26;;;;;;;16.20;14.32;;;;;;;21.00;67.14;100678.69;5091803;28;20369;-56
2023/05/21 02:57:53;;;;;;;15.77;14.15;;;;;;;20.99;67.19;100677.84;5093391;28;20047;-56
2023/05/21 03:00:21;;;;;;;16.23;13.88;;;;;;;21.00;67.09;100684.09;5095691;28;20499;-56
2023/05/21 03:02:48;;;;;;;16.27;14.57;;;;;;;21.00;67.01;100689.47;5096042;28;20503;-56
2023/05/21 03:05:16;;;;;;;15.95;14.25;;;;;;;21.01;67.03;100690.31;5092037;28;20400;-56
2023/05/21 03:07:44;;;;;;;17.65;14.00;;;;;;;20.99;67.08;100702.09;5074661;28;20056;-56
2023/05/21 03:10:11;;;;;;;15.68;14.10;;;;;;;21.00;66.96;100689.47;5076821;28;20067;-59
2023/05/21 03:12:38;;;;;;;16.98;15.18;;;;;;;21.01;67.17;100688.47;5075462;28;20048;-59
2023/05/21 03:15:06;;;;;;;15.93;14.18;;;;;;;21.00;66.97;100676.00;5076845;28;20817;-59
2023/05/21 03:17:34;;;;;;;16.60;14.90;;;;;;;21.01;66.91;100674.16;5076099;28;20377;-58
2023/05/21 03:20:03;;;;;;;16.45;14.75;;;;;;;20.99;66.91;100675.16;5075613;28;20492;-58
2023/05/21 03:22:31;;;;;;;15.77;13.93;;;;;;;20.99;66.76;100669.78;5076066;28;20480;-59
2023/05/21 03:25:01;;;;;;;16.50;14.43;;;;;;;20.99;66.84;100667.09;5075505;28;20420;-59
2023/05/21 03:27:29;;;;;;;14.55;12.98;;;;;;;20.99;66.81;100667.09;5075865;28;20056;-59
2023/05/21 03:30:02;;;;;;;15.75;14.05;;;;;;;20.98;66.87;100662.72;5075253;28;20060;-56
2023/05/21 03:32:40;;;;;;;16.45;14.75;;;;;;;21.00;66.79;100667.94;5075171;28;20052;-56
2023/05/21 03:35:08;;;;;;;15.98;14.25;;;;;;;20.99;66.66;100675.16;5075069;28;20063;-56
2023/05/21 03:37:35;;;;;;;16.80;15.00;;;;;;;21.01;66.73;100680.38;5075046;28;20051;-56
2023/05/21 03:40:04;;;;;;;16.33;14.63;;;;;;;20.99;66.62;100688.63;5075805;28;20052;-56
2023/05/21 03:42:31;;;;;;;16.17;14.45;;;;;;;20.99;66.61;100685.94;5075180;28;20049;-56
2023/05/21 03:44:59;;;;;;;19.77;14.48;;;;;;;20.99;66.77;100694.00;5075251;28;20056;-59
2023/05/21 03:47:47;;;;;;;17.63;15.35;;;;;;;20.99;66.67;100701.22;5076314;28;20064;-58
2023/05/21 03:50:15;;;;;;;15.65;13.95;;;;;;;21.00;66.71;100705.63;5075004;28;20061;-58
2023/05/21 03:52:43;;;;;;;16.23;14.23;;;;;;;20.99;66.65;100710.16;5084053;28;20074;-58
2023/05/21 03:55:11;;;;;;;15.63;13.98;;;;;;;20.99;66.68;100717.38;5095523;28;20079;-58
2023/05/21 03:57:38;;;;;;;16.65;14.85;;;;;;;20.98;66.52;100716.53;5094822;28;20391;-58
2023/05/21 04:00:07;;;;;;;15.63;13.95;;;;;;;20.98;66.56;100721.91;5094866;28;20055;-56
2023/05/21 04:02:41;;;;;;;17.83;14.57;;;;;;;20.99;66.52;100730.84;5103163;28;20059;-56
2023/05/21 04:05:11;;;;;;;16.25;14.52;;;;;;;21.00;66.64;100729.84;5094934;28;20075;-56
2023/05/21 04:07:39;;;;;;;16.55;14.85;;;;;;;20.98;66.59;100721.91;5078251;28;20049;-56
2023/05/21 04:10:07;;;;;;;16.33;13.63;;;;;;;20.98;66.57;100732.69;5074430;28;20053;-58
2023/05/21 04:12:34;;;;;;;15.38;13.70;;;;;;;20.99;66.57;100725.47;5074488;28;20044;-58
2023/05/21 04:15:04;;;;;;;16.33;13.85;;;;;;;20.97;66.53;100728.28;5073992;28;20056;-58
2023/05/21 04:17:33;;;;;;;16.73;14.65;;;;;;;20.98;66.51;100730.00;5074735;28;20053;-58
2023/05/21 04:20:01;;;;;;;16.67;14.23;;;;;;;20.99;66.46;100733.53;5074720;28;20079;-57
2023/05/21 04:22:29;;;;;;;19.02;15.23;;;;;;;20.98;66.42;100734.50;5074447;28;20055;-56
2023/05/21 04:24:58;;;;;;;16.08;14.38;;;;;;;20.98;66.44;100726.44;5074592;28;20044;-56
2023/05/21 04:27:29;;;;;;;16.53;13.57;;;;;;;20.98;66.26;100723.75;5074845;28;20408;-57
2023/05/21 04:29:57;;;;;;;15.32;13.73;;;;;;;20.97;66.21;100728.28;5074142;28;20048;-57
2023/05/21 04:32:24;;;;;;;16.52;14.82;;;;;;;20.98;66.45;100734.50;5074352;28;20052;-56
2023/05/21 04:34:52;;;;;;;15.93;14.10;;;;;;;20.98;66.42;100738.06;5074394;28;20049;-56
2023/05/21 04:37:23;;;;;;;16.25;14.55;;;;;;;20.98;66.36;100737.19;5075396;28;20056;-56
2023/05/21 04:39:50;;;;;;;15.20;13.60;;;;;;;20.98;66.30;100737.19;5084927;28;20047;-57
2023/05/21 04:42:18;;;;;;;16.00;13.70;;;;;;;20.98;66.44;100732.69;5093994;28;20048;-56
2023/05/21 04:44:45;;;;;;;14.70;13.02;;;;;;;20.98;66.41;100729.13;5094219;28;20074;-56
2023/05/21 04:47:13;;;;;;;15.80;14.02;;;;;;;20.98;66.33;100734.50;5094646;28;20048;-56
2023/05/21 04:49:41;;;;;;;17.05;13.75;;;;;;;20.98;66.40;100739.88;5093712;28;20052;-56
2023/05/21 04:52:09;;;;;;;16.70;14.27;;;;;;;20.98;66.25;100738.06;5094179;28;20052;-56
2023/05/21 04:54:37;;;;;;;14.70;13.20;;;;;;;20.97;66.29;100732.81;5095218;28;20048;-57
2023/05/21 04:57:05;;;;;;;15.07;13.48;;;;;;;20.98;66.26;100729.13;5093651;28;20040;-56
2023/05/21 04:59:34;;;;;;;14.75;13.13;;;;;;;20.96;66.22;100721.19;5093974;28;20499;-56
2023/05/21 05:02:01;;;;;;;16.42;14.25;;;;;;;20.96;66.29;100721.19;5094135;28;20059;-58
2023/05/21 05:04:28;;;;;;;14.68;13.18;;;;;;;20.97;66.27;100725.59;5095164;28;20056;-58
2023/05/21 05:06:56;;;;;;;16.00;13.80;;;;;;;20.98;66.22;100721.03;5092704;28;20131;-58
2023/05/21 05:09:24;;;;;;;17.80;13.70;;;;;;;20.99;66.18;100722.75;5073281;28;20377;-58
2023/05/21 05:11:52;;;;;;;15.07;13.50;;;;;;;20.98;66.09;100719.22;5073919;28;20052;-56
2023/05/21 05:14:19;;;;;;;15.00;13.02;;;;;;;20.97;66.22;100717.50;5073168;28;20048;-56
2023/05/21 05:16:47;;;;;;;14.77;13.25;;;;;;;20.97;66.21;100730.97;5073418;28;20045;-56
2023/05/21 05:19:15;;;;;;;14.95;13.40;;;;;;;20.97;66.12;100728.28;5057705;28;20056;-56
2023/05/21 05:21:43;;;;;;;15.70;13.52;;;;;;;20.98;66.15;100729.13;5072973;28;20063;-58
2023/05/21 05:24:11;;;;;;;15.52;13.00;;;;;;;20.97;66.07;100738.19;5072954;28;20508;-58
2023/05/21 05:26:38;;;;;;;15.05;13.45;;;;;;;20.97;66.17;100732.81;5073961;28;20056;-59
2023/05/21 05:29:06;;;;;;;15.02;13.43;;;;;;;20.96;66.10;100731.97;5074652;28;20048;-59
2023/05/21 05:31:33;;;;;;;14.73;12.88;;;;;;;20.97;66.05;100727.44;5073237;28;20055;-59
2023/05/21 05:34:01;;;;;;;16.92;13.93;;;;;;;20.97;66.09;100727.44;5073638;28;20083;-59
2023/05/21 05:36:28;;;;;;;16.98;14.00;;;;;;;20.97;66.01;100728.28;5073140;28;20056;-58
2023/05/21 05:38:56;;;;;;;14.73;12.65;;;;;;;20.97;66.08;100728.28;5072676;28;20487;-58
2023/05/21 05:41:23;;;;;;;14.30;12.82;;;;;;;20.97;66.01;100730.13;5073829;28;20496;-56
2023/05/21 05:43:51;;;;;;;14.38;12.43;;;;;;;20.98;66.10;100723.75;5073069;28;20056;-56
2023/05/21 05:46:21;;;;;;;15.75;13.60;;;;;;;20.98;65.98;100732.69;5072546;28;20048;-56
2023/05/21 05:48:50;;;;;;;15.88;13.32;;;;;;;20.98;65.91;100734.50;5072969;28;20048;-56
2023/05/21 05:51:17;;;;;;;17.90;14.57;;;;;;;20.98;65.78;100738.06;5072975;28;20057;-58
2023/05/21 05:53:45;;;;;;;16.40;13.90;;;;;;;20.98;65.93;100737.19;5087236;28;20044;-58
2023/05/21 05:56:13;;;;;;;15.43;13.60;;;;;;;20.96;65.92;100739.19;5092731;28;20058;-58
2023/05/21 05:58:40;;;;;;;15.07;13.48;;;;;;;20.97;65.81;100739.03;5092689;28;20048;-58
2023/05/21 06:01:12;;;;;;;16.02;13.20;;;;;;;20.98;65.82;100750.66;5093373;28;20052;-58
2023/05/21 06:03:40;;;;;;;16.05;14.15;;;;;;;20.97;65.72;100736.34;5092095;28;20055;-59
2023/05/21 06:06:13;;;;;;;16.65;13.50;;;;;;;20.98;65.73;100742.56;5093787;28;20040;-58
2023/05/21 06:08:41;;;;;;;15.38;13.40;;;;;;;20.97;65.78;100732.81;5084972;28;20043;-58
2023/05/21 06:11:10;;;;;;;15.55;13.95;;;;;;;20.98;65.83;100729.13;5072478;28;20055;-56
2023/05/21 06:13:37;;;;;;;15.98;13.80;;;;;;;20.98;65.76;100731.81;5073560;28;20047;-56
2023/05/21 06:16:06;;;;;;;13.98;12.55;;;;;;;20.99;65.67;100741.59;5072071;28;20052;-56
2023/05/21 06:18:33;;;;;;;14.88;12.65;;;;;;;20.98;65.59;100734.50;5073037;28;20044;-56
2023/05/21 06:21:01;;;;;;;15.45;13.75;;;;;;;20.97;65.60;100728.28;5072771;28;20052;-58
2023/05/21 06:23:31;;;;;;;16.45;13.65;;;;;;;20.99;65.58;100725.47;5071942;28;20052;-58
2023/05/21 06:25:59;;;;;;;14.85;12.65;;;;;;;20.98;65.64;100723.75;5072040;28;20080;-58
2023/05/21 06:28:27;;;;;;;15.85;13.07;;;;;;;21.00;65.62;100727.16;5072558;28;20045;-58
2023/05/21 06:30:54;;;;;;;16.27;13.63;;;;;;;20.99;65.59;100717.38;5072272;28;20388;-58
2023/05/21 06:33:23;;;;;;;16.45;13.23;;;;;;;20.99;65.50;100728.16;5072133;28;20053;-58
2023/05/21 06:35:51;;;;;;;15.63;13.95;;;;;;;21.01;65.52;100717.22;5071178;28;20063;-59
2023/05/21 06:38:18;;;;;;;14.88;13.27;;;;;;;21.01;65.42;100715.38;5071567;28;20049;-59
2023/05/21 06:40:47;;;;;;;13.73;12.25;;;;;;;21.01;65.45;100717.22;5078383;28;20052;-58
2023/05/21 06:43:24;;;;;;;14.57;12.10;;;;;;;21.01;65.49;100722.59;5092007;28;20056;-59
2023/05/21 06:46:10;;;;;;;15.05;13.45;;;;;;;21.02;65.55;100724.28;5100119;28;20059;-58
2023/05/21 06:48:39;;;;;;;14.52;13.02;;;;;;;21.01;65.47;100725.31;5092078;28;20040;-58
2023/05/21 06:51:07;;;;;;;14.63;12.95;;;;;;;21.03;65.44;100726.03;5091925;28;20130;-58
2023/05/21 06:53:36;;;;;;;14.90;12.75;;;;;;;21.03;65.51;100737.63;5093226;28;20063;-58
2023/05/21 06:56:04;;;;;;;14.80;12.75;;;;;;;21.03;65.54;100737.63;5091448;28;20066;-58
2023/05/21 06:58:36;;;;;;;14.27;12.70;;;;;;;21.03;65.54;100734.94;5091912;28;20388;-57
2023/05/21 07:01:04;;;;;;;15.00;12.80;;;;;;;21.03;65.45;100740.31;5093548;28;20052;-58
2023/05/21 07:03:32;;;;;;;15.18;13.38;;;;;;;21.01;65.42;100739.59;5091550;28;20724;-57
2023/05/21 07:05:59;;;;;;;14.65;13.05;;;;;;;21.03;65.40;100736.78;5091399;28;20058;-57
2023/05/21 07:08:27;;;;;;;14.02;12.50;;;;;;;21.03;65.45;100732.25;5091908;28;20052;-57
2023/05/21 07:10:57;;;;;;;15.38;13.43;;;;;;;21.03;65.43;100732.25;5072390;28;20059;-55
2023/05/21 07:13:25;;;;;;;15.43;12.40;;;;;;;21.04;65.49;100744.69;5071121;28;20053;-56
2023/05/21 07:15:52;;;;;;;14.13;12.63;;;;;;;21.04;65.48;100735.78;5071927;28;20052;-55
2023/05/21 07:18:20;;;;;;;14.25;12.38;;;;;;;21.06;65.50;100733.78;5071817;28;20059;-55
2023/05/21 07:20:47;;;;;;;13.45;11.23;;;;;;;21.04;65.41;100738.47;5073124;28;20397;-56
2023/05/21 07:23:15;;;;;;;14.43;12.85;;;;;;;21.05;65.47;100735.63;5071287;28;20048;-55
2023/05/21 07:25:45;;;;;;;14.85;12.82;;;;;;;21.05;65.38;100732.09;5071543;28;20060;-55
2023/05/21 07:28:13;;;;;;;14.88;13.27;;;;;;;21.05;65.37;100722.16;5070948;28;20049;-55
2023/05/21 07:30:40;;;;;;;14.82;12.50;;;;;;;21.06;65.39;100723.84;5071365;28;20053;-55
2023/05/21 07:33:13;;;;;;;14.73;12.93;;;;;;;21.08;65.22;100721.03;5071357;28;20063;-55
2023/05/21 07:35:40;;;;;;;14.05;11.73;;;;;;;21.07;65.25;100722.03;5071138;28;20063;-55
2023/05/21 07:38:08;;;;;;;13.73;12.30;;;;;;;21.08;65.34;100731.81;5071420;28;20044;-55
2023/05/21 07:40:35;;;;;;;13.43;12.02;;;;;;;21.07;65.22;100725.56;5070994;28;20048;-55
2023/05/21 07:43:03;;;;;;;13.35;11.98;;;;;;;21.09;65.33;100737.03;5071350;28;20056;-55
2023/05/21 07:45:33;;;;;;;13.93;12.43;;;;;;;21.08;65.32;100729.97;5072642;28;20395;-55
2023/05/21 07:48:01;;;;;;;12.43;11.13;;;;;;;21.09;65.30;100730.81;5076021;28;20075;-55
2023/05/21 07:50:31;;;;;;;15.48;13.23;;;;;;;21.10;65.28;100737.88;5075138;28;20048;-56
2023/05/21 07:52:59;;;;;;;14.15;12.07;;;;;;;21.09;65.32;100739.72;5076624;28;20063;-56
2023/05/21 07:55:27;;;;;;;13.23;11.10;;;;;;;21.10;65.22;100738.72;5095047;28;20443;-55
2023/05/21 07:57:55;;;;;;;13.48;12.07;;;;;;;21.12;65.31;100727.81;5095012;28;20680;-54
2023/05/21 08:00:29;;;;;;;13.98;12.27;;;;;;;21.13;65.13;100733.06;5095480;28;20063;-58
2023/05/21 08:02:57;;;;;;;14.82;13.20;;;;;;;21.14;65.30;100734.75;5088413;28;20071;-58
2023/05/21 08:05:25;;;;;;;13.70;12.25;;;;;;;21.16;65.17;100740.00;5074389;28;20049;-59
2023/05/21 08:07:52;;;;;;;14.57;12.98;;;;;;;21.17;65.18;100737.16;5074535;28;20067;-58
2023/05/21 08:10:21;;;;;;;13.38;11.90;;;;;;;21.18;65.54;100736.16;5074006;28;20044;-56
2023/05/21 08:12:50;;;;;;;15.05;13.35;;;;;;;21.19;65.47;100737.88;5089669;28;20059;-55
2023/05/21 08:15:19;;;;;;;14.85;12.32;;;;;;;21.20;65.40;100738.72;5094870;28;20044;-57
2023/05/21 08:17:46;;;;;;;12.93;11.57;;;;;;;21.22;65.51;100737.56;5094867;28;20052;-56
2023/05/21 08:20:15;;;;;;;13.80;11.85;;;;;;;21.23;65.52;100728.50;5094598;28;20044;-56
2023/05/21 08:22:44;;;;;;;12.80;11.38;;;;;;;21.23;65.45;100727.66;5094342;28;20056;-55
2023/05/21 08:25:11;;;;;;;14.07;12.57;;;;;;;21.23;65.40;100727.66;5094093;28;20056;-55
2023/05/21 08:27:39;;;;;;;16.17;13.32;;;;;;;21.22;65.41;100724.09;5077753;28;20051;-56
2023/05/21 08:30:10;;;;;;;14.20;12.70;;;;;;;21.24;65.31;100723.97;5094158;28;20055;-57
2023/05/21 08:32:37;;;;;;;13.63;12.13;;;;;;;21.23;65.42;100725.81;5094512;28;20052;-57
2023/05/21 08:35:07;;;;;;;12.35;11.00;;;;;;;21.26;65.30;100731.88;5077577;28;20484;-58
2023/05/21 08:37:54;;;;;;;15.35;13.25;;;;;;;21.25;65.41;100736.41;5094241;28;20052;-58
2023/05/21 08:40:40;;;;;;;16.30;12.85;;;;;;;21.26;65.53;100723.81;5094142;28;20055;-58
2023/05/21 08:43:12;;;;;;;16.02;13.75;;;;;;;21.27;65.25;100728.19;5094219;28;20500;-58
2023/05/21 08:45:53;;;;;;;16.48;14.27;;;;;;;21.26;64.82;100727.34;5094441;28;20044;-57
2023/05/21 08:48:23;;;;;;;13.40;11.48;;;;;;;21.29;65.17;100723.53;5093693;28;20060;-57
2023/05/21 08:50:52;;;;;;;13.50;11.77;;;;;;;21.31;65.17;100732.28;5094579;28;20059;-58
2023/05/21 08:53:26;;;;;;;13.25;11.85;;;;;;;21.32;65.26;100732.19;5094246;28;20055;-57
2023/05/21 08:55:56;;;;;;;13.85;11.27;;;;;;;;;;5094081;28;20055;-57
2023/05/21 08:58:32;;;;;;;12.60;11.30;;;;;;;21.38;65.07;100731.56;5093249;28;20056;-57
2023/05/21 09:01:01;;;;;;;13.45;10.77;;;;;;;21.40;65.09;100732.28;5094283;28;20065;-56
2023/05/21 09:03:31;;;;;;;11.93;10.57;;;;;;;21.43;65.02;100733.81;5093806;28;20404;-56
2023/05/21 09:05:59;;;;;;;12.00;10.65;;;;;;;21.43;65.08;100731.13;5093709;28;20059;-56
2023/05/21 09:08:34;;;;;;;13.73;10.90;;;;;;;21.46;65.03;100738.94;5095639;28;20448;-56
2023/05/21 09:11:06;;;;;;;11.88;10.68;;;;;;;21.46;64.87;100734.38;5091192;28;20063;-56
2023/05/21 09:13:42;;;;;;;11.73;10.43;;;;;;;21.48;64.76;100734.25;5072275;28;20053;-56
2023/05/21 09:16:16;;;;;;;13.32;11.25;;;;;;;21.48;64.62;100734.25;5073379;28;20064;-56
2023/05/21 09:18:43;;;;;;;11.57;10.38;;;;;;;21.48;64.62;100732.41;5073265;28;20060;-56
2023/05/21 09:21:26;;;;;;;12.43;11.05;;;;;;;21.48;64.64;100729.72;5073194;28;20048;-56
2023/05/21 09:24:00;;;;;;;10.43;9.32;;;;;;;21.49;64.61;100733.25;5072553;28;20443;-56
2023/05/21 09:26:28;;;;;;;13.07;11.00;;;;;;;21.50;64.68;100734.94;5073339;28;20523;-56
2023/05/21 09:29:00;;;;;;;12.50;10.20;;;;;;;21.51;64.61;100735.78;5073039;28;20063;-52
2023/05/21 09:31:29;;;;;;;12.48;10.35;;;;;;;21.54;64.56;100730.94;5073868;28;20052;-53
2023/05/21 09:34:00;;;;;;;16.63;14.75;;;;;;;21.55;64.86;100737.19;5056797;28;20053;-52
2023/05/21 09:36:30;;;;;;;15.10;13.50;;;;;;;21.56;64.66;100744.28;5071410;28;20393;-53
2023/05/21 09:38:59;;;;;;;15.60;13.40;;;;;;;21.57;64.50;100741.44;5072399;28;20060;-51
2023/05/21 09:41:34;;;;;;;14.30;12.80;;;;;;;21.58;64.30;100745.81;5073339;28;20071;-57
2023/05/21 09:44:03;;;;;;;16.63;13.80;;;;;;;21.61;64.33;100748.22;5073651;28;20407;-57
2023/05/21 09:46:39;;;;;;;15.65;13.32;;;;;;;21.62;64.33;100744.53;5075681;28;20067;-48
2023/05/21 09:49:21;;;;;;;13.80;12.38;;;;;;;21.62;64.16;100740.97;5072778;28;20059;-51
2023/05/21 09:51:49;;;;;;;16.33;13.23;;;;;;;21.63;64.08;100746.25;5075014;28;20052;-50
2023/05/21 09:54:16;;;;;;;13.57;12.18;;;;;;;21.63;64.09;100746.25;5081454;28;20103;-51
2023/05/21 09:56:44;;;;;;;14.50;12.88;;;;;;;21.62;64.04;100749.06;5085117;28;20045;-47
2023/05/21 09:59:12;;;;;;;15.68;13.30;;;;;;;21.63;64.11;100756.16;5073181;28;20056;-48
2023/05/21 10:01:39;;;;;;;15.52;13.02;;;;;;;21.62;64.04;100754.44;5086151;28;20040;-51
2023/05/21 10:04:07;;;;;;;15.73;12.57;;;;;;;21.62;63.94;100751.75;5077503;28;20056;-51
2023/05/21 10:06:42;;;;;;;14.63;13.13;;;;;;;21.62;64.04;100752.59;5073336;28;20051;-51
2023/05/21 10:09:10;;;;;;;17.23;14.75;;;;;;;21.63;64.08;100754.31;5073266;28;20059;-57
2023/05/21 10:11:42;;;;;;;15.73;13.18;;;;;;;21.68;64.17;100752.03;5073728;28;20052;-57
2023/05/21 10:14:26;;;;;;;16.30;13.52;;;;;;;21.66;64.09;100751.31;5074235;28;20047;-58
2023/05/21 10:16:54;;;;;;;15.00;12.60;;;;;;;21.66;63.99;100745.91;5073872;28;20041;-58
2023/05/21 10:19:23;;;;;;;14.90;12.98;;;;;;;21.66;63.99;100748.63;5073257;28;20130;-58
2023/05/21 10:21:53;;;;;;;14.02;12.60;;;;;;;21.68;63.97;100751.19;5073196;28;20044;-49
2023/05/21 10:24:21;;;;;;;14.43;12.88;;;;;;;21.69;64.01;100750.19;5072763;28;20056;-52
2023/05/21 10:26:50;;;;;;;13.10;11.48;;;;;;;21.72;64.06;100747.19;5072151;28;20048;-52
2023/05/21 10:29:18;;;;;;;14.63;13.07;;;;;;;21.75;63.99;100746.88;5072742;28;20376;-52
2023/05/21 10:31:49;;;;;;;13.48;12.07;;;;;;;21.75;63.30;100743.31;5072823;28;20056;-52
2023/05/21 10:34:18;;;;;;;15.40;13.18;;;;;;;21.76;63.25;100745.91;5090502;28;20407;-49
2023/05/21 10:36:48;;;;;;;18.35;16.50;;;;;;;21.73;63.51;100741.63;5092877;28;20051;-58
2023/05/21 10:39:18;;;;;;;16.35;14.65;;;;;;;21.72;63.54;100742.66;5091919;28;20106;-57
2023/05/21 10:41:55;;;;;;;15.95;13.88;;;;;;;21.70;63.51;100744.63;5093522;28;20052;-55
2023/05/21 10:44:32;;;;;;;15.57;13.98;;;;;;;21.69;63.46;100742.94;5093159;28;20059;-54
2023/05/21 10:47:27;;;;;;;16.20;14.48;;;;;;;21.69;63.16;100747.47;5093084;28;20051;-54
2023/05/21 10:50:19;;;;;;;15.45;13.10;;;;;;;21.68;63.16;100738.56;5093649;28;20055;-57
2023/05/21 10:53:06;;;;;;;15.90;13.85;;;;;;;21.69;63.11;100742.09;5092982;28;20048;-57
2023/05/21 10:56:08;;;;;;;15.80;14.15;;;;;;;21.68;63.07;100733.16;5092844;28;20051;-57
2023/05/21 10:58:47;;;;;;;15.35;13.63;;;;;;;21.68;63.06;100732.31;5088600;28;20416;-57
2023/05/21 11:01:18;;;;;;;18.10;13.80;;;;;;;21.68;62.85;100727.78;5081104;28;20044;-54
2023/05/21 11:03:47;;;;;;;14.40;12.90;;;;;;;21.67;62.95;100731.47;5084205;28;20062;-55
2023/05/21 11:06:24;;;;;;;14.85;13.30;;;;;;;21.75;63.01;100724.47;5091412;28;20399;-55
2023/05/21 11:08:52;;;;;;;15.77;14.18;;;;;;;21.98;62.28;100721.22;5092959;28;20055;-56
2023/05/21 11:11:43;;;;;;;15.38;13.75;;;;;;;21.95;62.41;100718.81;5093144;28;20051;-59
2023/05/21 11:14:35;;;;;;;14.07;12.63;;;;;;;21.91;62.44;100721.97;5081497;28;20037;-59
2023/05/21 11:17:06;;;;;;;15.43;12.25;;;;;;;21.87;62.56;100710.63;5090504;28;20063;-59
2023/05/21 11:19:40;;;;;;;14.18;12.75;;;;;;;21.84;62.37;100708.25;5092925;28;20463;-58
2023/05/21 11:22:27;;;;;;;14.10;12.45;;;;;;;21.83;62.55;100711.09;5097091;28;20479;-55